sensor_id;sensor_type;location;lat;lon;timestamp;temperature;humidity
13035;DHT22;6584;48.022;11.810;2022-12-18T00:01:50;-4.40;99.90
13035;DHT22;6584;48.022;11.810;2022-12-18T00:04:23;-4.20;99.90
13035;DHT22;6584;48.022;11.810;2022-12-18T00:06:48;-4.40;99.90
13035;DHT22;6584;48.022;11.810;2022-12-18T00:09:15;-4.60;99.90
13035;DHT22;6584;48.022;11.810;2022-12-18T00:11:40;-4.70;99.90
13035;DHT22;6584;48.022;11.810;2022-12-18T00:14:06;-4.80;99.90
13035;DHT22;6584;48.022;11.810;2022-12-18T00:16:32;-4.60;99.90
13035;DHT22;6584;48.022;11.810;2022-12-18T00:19:00;-4.30;99.90
13035;DHT22;6584;48.022;11.810;2022-12-18T00:21:27;-4.40;99.90
13035;DHT22;6584;48.022;11.810;2022-12-18T00:23:53;-4.60;99.90
13035;DHT22;6584;48.022;11.810;2022-12-18T00:26:24;-4.50;99.90
13035;DHT22;6584;48.022;11.810;2022-12-18T00:28:51;-4.40;99.90
13035;DHT22;6584;48.022;11.810;2022-12-18T00:31:22;-4.80;99.90
13035;DHT22;6584;48.022;11.810;2022-12-18T00:33:48;-4.80;99.90
13035;DHT22;6584;48.022;11.810;2022-12-18T00:36:16;-4.60;99.90
13035;DHT22;6584;48.022;11.810;2022-12-18T00:38:43;-4.60;99.90
13035;DHT22;6584;48.022;11.810;2022-12-18T00:41:09;-4.70;99.90
13035;DHT22;6584;48.022;11.810;2022-12-18T00:43:36;-4.80;99.90
13035;DHT22;6584;48.022;11.810;2022-12-18T00:46:02;-4.70;99.90
13035;DHT22;6584;48.022;11.810;2022-12-18T00:48:28;-4.70;99.90
13035;DHT22;6584;48.022;11.810;2022-12-18T00:50:54;-4.60;99.90
13035;DHT22;6584;48.022;11.810;2022-12-18T00:53:19;-4.50;99.90
13035;DHT22;6584;48.022;11.810;2022-12-18T00:55:45;-4.20;99.90
13035;DHT22;6584;48.022;11.810;2022-12-18T00:58:12;-4.30;99.90
13035;DHT22;6584;48.022;11.810;2022-12-18T01:00:38;-4.40;99.90
13035;DHT22;6584;48.022;11.810;2022-12-18T01:03:04;-4.60;99.90
13035;DHT22;6584;48.022;11.810;2022-12-18T01:05:30;-4.70;99.90
13035;DHT22;6584;48.022;11.810;2022-12-18T01:07:56;-4.80;99.90
13035;DHT22;6584;48.022;11.810;2022-12-18T01:10:22;-4.80;99.90
13035;DHT22;6584;48.022;11.810;2022-12-18T01:12:47;-4.60;99.90
13035;DHT22;6584;48.022;11.810;2022-12-18T01:15:14;-4.50;99.90
13035;DHT22;6584;48.022;11.810;2022-12-18T01:17:40;-4.40;99.90
13035;DHT22;6584;48.022;11.810;2022-12-18T01:20:06;-4.50;99.90
13035;DHT22;6584;48.022;11.810;2022-12-18T01:22:32;-4.30;99.90
13035;DHT22;6584;48.022;11.810;2022-12-18T01:24:58;-4.50;99.90
13035;DHT22;6584;48.022;11.810;2022-12-18T01:27:23;-4.70;99.90
13035;DHT22;6584;48.022;11.810;2022-12-18T01:29:49;-4.50;99.90
13035;DHT22;6584;48.022;11.810;2022-12-18T01:32:15;-4.30;99.90
13035;DHT22;6584;48.022;11.810;2022-12-18T01:34:40;-4.10;99.90
13035;DHT22;6584;48.022;11.810;2022-12-18T01:37:06;-4.00;99.90
13035;DHT22;6584;48.022;11.810;2022-12-18T01:39:32;-4.00;99.90
13035;DHT22;6584;48.022;11.810;2022-12-18T01:41:59;-3.80;99.90
13035;DHT22;6584;48.022;11.810;2022-12-18T01:50:18;-3.80;99.90
13035;DHT22;6584;48.022;11.810;2022-12-18T01:53:25;-3.80;99.90
13035;DHT22;6584;48.022;11.810;2022-12-18T01:55:53;-3.80;99.90
13035;DHT22;6584;48.022;11.810;2022-12-18T01:58:23;-3.90;99.90
13035;DHT22;6584;48.022;11.810;2022-12-18T02:00:49;-4.10;99.90
13035;DHT22;6584;48.022;11.810;2022-12-18T02:03:15;-4.00;99.90
13035;DHT22;6584;48.022;11.810;2022-12-18T02:05:47;-4.20;99.90
13035;DHT22;6584;48.022;11.810;2022-12-18T02:08:20;-4.40;99.90
13035;DHT22;6584;48.022;11.810;2022-12-18T02:16:09;-4.20;99.90
13035;DHT22;6584;48.022;11.810;2022-12-18T02:18:43;-4.30;99.90
13035;DHT22;6584;48.022;11.810;2022-12-18T02:26:50;-4.40;99.90
13035;DHT22;6584;48.022;11.810;2022-12-18T02:29:21;-4.40;99.90
13035;DHT22;6584;48.022;11.810;2022-12-18T02:31:53;-4.50;99.90
13035;DHT22;6584;48.022;11.810;2022-12-18T02:34:22;-4.30;99.90
13035;DHT22;6584;48.022;11.810;2022-12-18T02:36:50;-4.40;99.90
13035;DHT22;6584;48.022;11.810;2022-12-18T02:39:17;-4.40;99.90
13035;DHT22;6584;48.022;11.810;2022-12-18T02:41:43;-4.40;99.90
13035;DHT22;6584;48.022;11.810;2022-12-18T02:44:11;-4.30;99.90
13035;DHT22;6584;48.022;11.810;2022-12-18T02:46:48;-4.20;99.90
13035;DHT22;6584;48.022;11.810;2022-12-18T02:52:16;-4.10;99.90
13035;DHT22;6584;48.022;11.810;2022-12-18T03:03:48;-4.10;99.90
13035;DHT22;6584;48.022;11.810;2022-12-18T03:06:38;-4.30;99.90
13035;DHT22;6584;48.022;11.810;2022-12-18T03:09:44;-4.50;99.90
13035;DHT22;6584;48.022;11.810;2022-12-18T03:17:27;-4.20;99.90
13035;DHT22;6584;48.022;11.810;2022-12-18T03:19:55;-4.20;99.90
13035;DHT22;6584;48.022;11.810;2022-12-18T03:22:23;-4.20;99.90
13035;DHT22;6584;48.022;11.810;2022-12-18T03:24:52;-4.20;99.90
13035;DHT22;6584;48.022;11.810;2022-12-18T03:27:20;-4.30;99.90
13035;DHT22;6584;48.022;11.810;2022-12-18T03:29:53;-4.20;99.90
13035;DHT22;6584;48.022;11.810;2022-12-18T03:32:25;-4.40;99.90
13035;DHT22;6584;48.022;11.810;2022-12-18T03:34:57;-4.40;99.90
13035;DHT22;6584;48.022;11.810;2022-12-18T03:37:24;-4.40;99.90
13035;DHT22;6584;48.022;11.810;2022-12-18T03:39:49;-4.40;99.90
13035;DHT22;6584;48.022;11.810;2022-12-18T03:42:28;-4.40;99.90
13035;DHT22;6584;48.022;11.810;2022-12-18T03:48:00;-4.40;99.90
13035;DHT22;6584;48.022;11.810;2022-12-18T03:56:02;-4.40;99.90
13035;DHT22;6584;48.022;11.810;2022-12-18T03:58:31;-4.40;99.90
13035;DHT22;6584;48.022;11.810;2022-12-18T04:01:01;-4.40;99.90
13035;DHT22;6584;48.022;11.810;2022-12-18T04:03:28;-4.50;99.90
13035;DHT22;6584;48.022;11.810;2022-12-18T04:05:55;-4.40;99.90
13035;DHT22;6584;48.022;11.810;2022-12-18T04:08:23;-4.20;99.90
13035;DHT22;6584;48.022;11.810;2022-12-18T04:10:49;-4.20;99.90
13035;DHT22;6584;48.022;11.810;2022-12-18T04:13:27;-4.10;99.90
13035;DHT22;6584;48.022;11.810;2022-12-18T04:15:53;-4.30;99.90
13035;DHT22;6584;48.022;11.810;2022-12-18T04:18:19;-4.10;99.90
13035;DHT22;6584;48.022;11.810;2022-12-18T04:20:44;-4.30;99.90
13035;DHT22;6584;48.022;11.810;2022-12-18T04:23:10;-3.90;99.90
13035;DHT22;6584;48.022;11.810;2022-12-18T04:25:35;-4.00;99.90
13035;DHT22;6584;48.022;11.810;2022-12-18T04:28:01;-3.90;99.90
13035;DHT22;6584;48.022;11.810;2022-12-18T04:30:27;-4.10;99.90
13035;DHT22;6584;48.022;11.810;2022-12-18T04:32:52;-4.10;99.90
13035;DHT22;6584;48.022;11.810;2022-12-18T04:35:18;-4.10;99.90
13035;DHT22;6584;48.022;11.810;2022-12-18T04:37:44;-4.10;99.90
13035;DHT22;6584;48.022;11.810;2022-12-18T04:40:10;-4.20;99.90
13035;DHT22;6584;48.022;11.810;2022-12-18T04:42:35;-4.50;99.90
13035;DHT22;6584;48.022;11.810;2022-12-18T04:45:01;-4.40;99.90
13035;DHT22;6584;48.022;11.810;2022-12-18T04:47:26;-4.20;99.90
13035;DHT22;6584;48.022;11.810;2022-12-18T04:49:52;-4.10;99.90
13035;DHT22;6584;48.022;11.810;2022-12-18T04:52:18;-4.30;99.90
13035;DHT22;6584;48.022;11.810;2022-12-18T04:54:43;-4.10;99.90
13035;DHT22;6584;48.022;11.810;2022-12-18T04:57:09;-4.00;99.90
13035;DHT22;6584;48.022;11.810;2022-12-18T04:59:35;-4.10;99.90
13035;DHT22;6584;48.022;11.810;2022-12-18T05:02:01;-4.00;99.90
13035;DHT22;6584;48.022;11.810;2022-12-18T05:04:26;-3.80;99.90
13035;DHT22;6584;48.022;11.810;2022-12-18T05:06:52;-3.70;99.90
13035;DHT22;6584;48.022;11.810;2022-12-18T05:09:17;-3.60;99.90
13035;DHT22;6584;48.022;11.810;2022-12-18T05:11:43;-3.70;99.90
13035;DHT22;6584;48.022;11.810;2022-12-18T05:14:08;-4.00;99.90
13035;DHT22;6584;48.022;11.810;2022-12-18T05:16:34;-3.90;99.90
13035;DHT22;6584;48.022;11.810;2022-12-18T05:18:59;-4.10;99.90
13035;DHT22;6584;48.022;11.810;2022-12-18T05:21:25;-4.30;99.90
13035;DHT22;6584;48.022;11.810;2022-12-18T05:23:50;-4.30;99.90
13035;DHT22;6584;48.022;11.810;2022-12-18T05:26:17;-4.30;99.90
13035;DHT22;6584;48.022;11.810;2022-12-18T05:28:43;-4.40;99.90
13035;DHT22;6584;48.022;11.810;2022-12-18T05:31:09;-4.40;99.90
13035;DHT22;6584;48.022;11.810;2022-12-18T05:33:35;-4.30;99.90
13035;DHT22;6584;48.022;11.810;2022-12-18T05:36:02;-4.40;99.90
13035;DHT22;6584;48.022;11.810;2022-12-18T05:38:29;-4.20;99.90
13035;DHT22;6584;48.022;11.810;2022-12-18T05:40:55;-4.20;99.90
13035;DHT22;6584;48.022;11.810;2022-12-18T05:43:22;-4.30;99.90
13035;DHT22;6584;48.022;11.810;2022-12-18T05:45:48;-4.60;99.90
13035;DHT22;6584;48.022;11.810;2022-12-18T05:48:15;-4.70;99.90
13035;DHT22;6584;48.022;11.810;2022-12-18T05:50:42;-4.50;99.90
13035;DHT22;6584;48.022;11.810;2022-12-18T05:53:09;-4.40;99.90
13035;DHT22;6584;48.022;11.810;2022-12-18T05:55:35;-4.40;99.90
13035;DHT22;6584;48.022;11.810;2022-12-18T05:58:02;-4.30;99.90
13035;DHT22;6584;48.022;11.810;2022-12-18T06:00:28;-4.60;99.90
13035;DHT22;6584;48.022;11.810;2022-12-18T06:02:53;-4.30;99.90
13035;DHT22;6584;48.022;11.810;2022-12-18T06:05:19;-4.10;99.90
13035;DHT22;6584;48.022;11.810;2022-12-18T06:07:45;-4.00;99.90
13035;DHT22;6584;48.022;11.810;2022-12-18T06:10:10;-4.00;99.90
13035;DHT22;6584;48.022;11.810;2022-12-18T06:12:37;-4.10;99.90
13035;DHT22;6584;48.022;11.810;2022-12-18T06:15:03;-4.50;99.90
13035;DHT22;6584;48.022;11.810;2022-12-18T06:17:33;-4.80;99.90
13035;DHT22;6584;48.022;11.810;2022-12-18T06:19:58;-4.50;99.90
13035;DHT22;6584;48.022;11.810;2022-12-18T06:22:24;-4.30;99.90
13035;DHT22;6584;48.022;11.810;2022-12-18T06:24:50;-4.50;99.90
13035;DHT22;6584;48.022;11.810;2022-12-18T06:27:16;-4.50;99.90
13035;DHT22;6584;48.022;11.810;2022-12-18T06:29:41;-4.60;99.90
13035;DHT22;6584;48.022;11.810;2022-12-18T06:32:07;-4.70;99.90
13035;DHT22;6584;48.022;11.810;2022-12-18T06:34:33;-4.60;99.90
13035;DHT22;6584;48.022;11.810;2022-12-18T06:36:58;-4.60;99.90
13035;DHT22;6584;48.022;11.810;2022-12-18T06:39:24;-4.60;99.90
13035;DHT22;6584;48.022;11.810;2022-12-18T06:41:52;-4.40;99.90
13035;DHT22;6584;48.022;11.810;2022-12-18T06:44:17;-4.70;99.90
13035;DHT22;6584;48.022;11.810;2022-12-18T06:46:43;-4.60;99.90
13035;DHT22;6584;48.022;11.810;2022-12-18T06:49:09;-4.60;99.90
13035;DHT22;6584;48.022;11.810;2022-12-18T06:51:35;-4.60;99.90
13035;DHT22;6584;48.022;11.810;2022-12-18T06:54:00;-4.80;99.90
13035;DHT22;6584;48.022;11.810;2022-12-18T06:56:26;-4.60;99.90
13035;DHT22;6584;48.022;11.810;2022-12-18T06:58:52;-4.70;99.90
13035;DHT22;6584;48.022;11.810;2022-12-18T07:01:18;-4.80;99.90
13035;DHT22;6584;48.022;11.810;2022-12-18T07:03:43;-4.70;99.90
13035;DHT22;6584;48.022;11.810;2022-12-18T07:06:18;-4.60;99.90
13035;DHT22;6584;48.022;11.810;2022-12-18T07:08:44;-4.60;99.90
13035;DHT22;6584;48.022;11.810;2022-12-18T07:11:10;-4.50;99.90
13035;DHT22;6584;48.022;11.810;2022-12-18T07:13:35;-4.50;99.90
13035;DHT22;6584;48.022;11.810;2022-12-18T07:16:12;-4.60;99.90
13035;DHT22;6584;48.022;11.810;2022-12-18T07:18:38;-4.40;99.90
13035;DHT22;6584;48.022;11.810;2022-12-18T07:21:09;-4.50;99.90
13035;DHT22;6584;48.022;11.810;2022-12-18T07:23:35;-4.30;99.90
13035;DHT22;6584;48.022;11.810;2022-12-18T07:26:03;-4.60;99.90
13035;DHT22;6584;48.022;11.810;2022-12-18T07:28:29;-4.40;99.90
13035;DHT22;6584;48.022;11.810;2022-12-18T07:30:55;-4.60;99.90
13035;DHT22;6584;48.022;11.810;2022-12-18T07:33:20;-4.70;99.90
13035;DHT22;6584;48.022;11.810;2022-12-18T07:35:46;-4.50;99.90
13035;DHT22;6584;48.022;11.810;2022-12-18T07:38:11;-4.50;99.90
13035;DHT22;6584;48.022;11.810;2022-12-18T07:40:37;-4.60;99.90
13035;DHT22;6584;48.022;11.810;2022-12-18T07:43:02;-4.70;99.90
13035;DHT22;6584;48.022;11.810;2022-12-18T07:45:28;-4.50;99.90
13035;DHT22;6584;48.022;11.810;2022-12-18T07:47:53;-4.50;99.90
13035;DHT22;6584;48.022;11.810;2022-12-18T07:50:19;-4.60;99.90
13035;DHT22;6584;48.022;11.810;2022-12-18T07:52:44;-4.70;99.90
13035;DHT22;6584;48.022;11.810;2022-12-18T07:55:10;-4.70;99.90
13035;DHT22;6584;48.022;11.810;2022-12-18T07:57:35;-4.90;99.90
13035;DHT22;6584;48.022;11.810;2022-12-18T08:00:01;-4.90;99.90
13035;DHT22;6584;48.022;11.810;2022-12-18T08:02:30;-4.90;99.90
13035;DHT22;6584;48.022;11.810;2022-12-18T08:04:55;-4.70;99.90
13035;DHT22;6584;48.022;11.810;2022-12-18T08:07:21;-4.50;99.90
13035;DHT22;6584;48.022;11.810;2022-12-18T08:09:46;-4.80;99.90
13035;DHT22;6584;48.022;11.810;2022-12-18T08:12:12;-4.90;99.90
13035;DHT22;6584;48.022;11.810;2022-12-18T08:14:37;-4.70;99.90
13035;DHT22;6584;48.022;11.810;2022-12-18T08:17:03;-4.60;99.90
13035;DHT22;6584;48.022;11.810;2022-12-18T08:19:28;-4.70;99.90
13035;DHT22;6584;48.022;11.810;2022-12-18T08:21:54;-4.60;99.90
13035;DHT22;6584;48.022;11.810;2022-12-18T08:24:20;-4.50;99.90
13035;DHT22;6584;48.022;11.810;2022-12-18T08:26:45;-4.80;99.90
13035;DHT22;6584;48.022;11.810;2022-12-18T08:29:11;-5.00;99.90
13035;DHT22;6584;48.022;11.810;2022-12-18T08:31:36;-4.80;99.90
13035;DHT22;6584;48.022;11.810;2022-12-18T08:34:02;-4.70;99.90
13035;DHT22;6584;48.022;11.810;2022-12-18T08:36:27;-4.60;99.90
13035;DHT22;6584;48.022;11.810;2022-12-18T08:38:53;-4.80;99.90
13035;DHT22;6584;48.022;11.810;2022-12-18T08:41:19;-4.90;99.90
13035;DHT22;6584;48.022;11.810;2022-12-18T08:43:45;-4.90;99.90
13035;DHT22;6584;48.022;11.810;2022-12-18T08:46:38;-4.70;99.90
13035;DHT22;6584;48.022;11.810;2022-12-18T08:49:05;-4.60;99.90
13035;DHT22;6584;48.022;11.810;2022-12-18T08:51:32;-4.80;99.90
13035;DHT22;6584;48.022;11.810;2022-12-18T08:53:57;-4.70;99.90
13035;DHT22;6584;48.022;11.810;2022-12-18T08:56:23;-4.70;99.90
13035;DHT22;6584;48.022;11.810;2022-12-18T08:58:54;-4.30;99.90
13035;DHT22;6584;48.022;11.810;2022-12-18T09:01:20;-4.60;99.90
13035;DHT22;6584;48.022;11.810;2022-12-18T09:03:48;-4.80;99.90
13035;DHT22;6584;48.022;11.810;2022-12-18T09:06:16;-4.80;99.90
13035;DHT22;6584;48.022;11.810;2022-12-18T09:08:43;-4.80;99.90
13035;DHT22;6584;48.022;11.810;2022-12-18T09:11:20;-4.60;99.90
13035;DHT22;6584;48.022;11.810;2022-12-18T09:13:46;-5.00;99.90
13035;DHT22;6584;48.022;11.810;2022-12-18T09:16:12;-4.80;99.90
13035;DHT22;6584;48.022;11.810;2022-12-18T09:18:38;-4.50;99.90
13035;DHT22;6584;48.022;11.810;2022-12-18T09:21:14;-4.50;99.90
13035;DHT22;6584;48.022;11.810;2022-12-18T09:23:40;-4.50;99.90
13035;DHT22;6584;48.022;11.810;2022-12-18T09:26:06;-5.00;99.90
13035;DHT22;6584;48.022;11.810;2022-12-18T09:28:32;-4.90;99.90
13035;DHT22;6584;48.022;11.810;2022-12-18T09:30:58;-4.80;99.90
13035;DHT22;6584;48.022;11.810;2022-12-18T09:33:24;-4.80;99.90
13035;DHT22;6584;48.022;11.810;2022-12-18T09:35:50;-4.80;99.90
13035;DHT22;6584;48.022;11.810;2022-12-18T09:38:17;-4.70;99.90
13035;DHT22;6584;48.022;11.810;2022-12-18T09:40:53;-4.70;99.90
13035;DHT22;6584;48.022;11.810;2022-12-18T09:43:37;-4.90;99.90
13035;DHT22;6584;48.022;11.810;2022-12-18T09:46:16;-4.80;99.90
13035;DHT22;6584;48.022;11.810;2022-12-18T09:48:46;-4.80;99.90
13035;DHT22;6584;48.022;11.810;2022-12-18T09:51:20;-4.80;99.90
13035;DHT22;6584;48.022;11.810;2022-12-18T09:53:53;-4.70;99.90
13035;DHT22;6584;48.022;11.810;2022-12-18T09:56:21;-4.50;99.90
13035;DHT22;6584;48.022;11.810;2022-12-18T09:58:57;-4.60;99.90
13035;DHT22;6584;48.022;11.810;2022-12-18T10:01:24;-4.80;99.90
13035;DHT22;6584;48.022;11.810;2022-12-18T10:03:50;-4.70;99.90
13035;DHT22;6584;48.022;11.810;2022-12-18T10:20:05;-4.90;99.90
13035;DHT22;6584;48.022;11.810;2022-12-18T10:22:48;-4.60;99.90
13035;DHT22;6584;48.022;11.810;2022-12-18T10:25:25;-4.60;99.90
13035;DHT22;6584;48.022;11.810;2022-12-18T10:27:56;-4.40;99.90
13035;DHT22;6584;48.022;11.810;2022-12-18T10:30:24;-4.50;99.90
13035;DHT22;6584;48.022;11.810;2022-12-18T10:32:51;-4.60;99.90
13035;DHT22;6584;48.022;11.810;2022-12-18T10:35:21;-4.80;99.90
13035;DHT22;6584;48.022;11.810;2022-12-18T10:40:56;-4.50;99.90
13035;DHT22;6584;48.022;11.810;2022-12-18T10:43:35;-4.50;99.90
13035;DHT22;6584;48.022;11.810;2022-12-18T10:51:05;-4.30;99.90
13035;DHT22;6584;48.022;11.810;2022-12-18T10:53:33;-4.30;99.90
13035;DHT22;6584;48.022;11.810;2022-12-18T10:56:04;-4.30;99.90
13035;DHT22;6584;48.022;11.810;2022-12-18T10:58:36;-4.40;99.90
13035;DHT22;6584;48.022;11.810;2022-12-18T11:03:33;-4.60;99.90
13035;DHT22;6584;48.022;11.810;2022-12-18T11:08:32;-4.50;99.90
13035;DHT22;6584;48.022;11.810;2022-12-18T11:10:58;-4.10;99.90
13035;DHT22;6584;48.022;11.810;2022-12-18T11:13:26;-4.20;99.90
13035;DHT22;6584;48.022;11.810;2022-12-18T11:15:53;-4.10;99.90
13035;DHT22;6584;48.022;11.810;2022-12-18T11:18:30;-3.80;99.90
13035;DHT22;6584;48.022;11.810;2022-12-18T11:20:58;-3.70;99.90
13035;DHT22;6584;48.022;11.810;2022-12-18T11:23:25;-3.70;99.90
13035;DHT22;6584;48.022;11.810;2022-12-18T11:25:59;-3.70;99.90
13035;DHT22;6584;48.022;11.810;2022-12-18T11:34:21;-4.00;99.90
13035;DHT22;6584;48.022;11.810;2022-12-18T11:36:48;-4.10;99.90
13035;DHT22;6584;48.022;11.810;2022-12-18T11:39:22;-4.30;99.90
13035;DHT22;6584;48.022;11.810;2022-12-18T11:41:53;-4.10;99.90
13035;DHT22;6584;48.022;11.810;2022-12-18T11:44:56;-3.90;99.90
13035;DHT22;6584;48.022;11.810;2022-12-18T11:47:33;-3.60;99.90
13035;DHT22;6584;48.022;11.810;2022-12-18T11:50:02;-3.70;99.90
13035;DHT22;6584;48.022;11.810;2022-12-18T11:52:34;-3.60;99.90
13035;DHT22;6584;48.022;11.810;2022-12-18T11:55:10;-3.50;99.90
13035;DHT22;6584;48.022;11.810;2022-12-18T11:57:39;-3.70;99.90
13035;DHT22;6584;48.022;11.810;2022-12-18T12:00:14;-3.70;99.90
13035;DHT22;6584;48.022;11.810;2022-12-18T12:02:42;-3.80;99.90
13035;DHT22;6584;48.022;11.810;2022-12-18T12:08:36;-3.60;99.90
13035;DHT22;6584;48.022;11.810;2022-12-18T12:11:25;-3.60;99.90
13035;DHT22;6584;48.022;11.810;2022-12-18T12:16:50;-3.70;99.90
13035;DHT22;6584;48.022;11.810;2022-12-18T12:19:28;-3.50;99.90
13035;DHT22;6584;48.022;11.810;2022-12-18T12:36:22;-4.00;99.90
13035;DHT22;6584;48.022;11.810;2022-12-18T12:38:55;-4.10;99.90
13035;DHT22;6584;48.022;11.810;2022-12-18T12:41:24;-4.00;99.90
13035;DHT22;6584;48.022;11.810;2022-12-18T12:44:16;-3.90;99.90
13035;DHT22;6584;48.022;11.810;2022-12-18T12:46:43;-4.10;99.90
13035;DHT22;6584;48.022;11.810;2022-12-18T12:49:15;-4.10;99.90
13035;DHT22;6584;48.022;11.810;2022-12-18T12:51:44;-4.00;99.90
13035;DHT22;6584;48.022;11.810;2022-12-18T12:54:23;-3.80;99.90
13035;DHT22;6584;48.022;11.810;2022-12-18T12:56:57;-4.00;99.90
13035;DHT22;6584;48.022;11.810;2022-12-18T13:02:20;-4.30;99.90
13035;DHT22;6584;48.022;11.810;2022-12-18T13:05:16;-4.00;99.90
13035;DHT22;6584;48.022;11.810;2022-12-18T13:08:05;-3.90;99.90
13035;DHT22;6584;48.022;11.810;2022-12-18T13:10:33;-4.10;99.90
13035;DHT22;6584;48.022;11.810;2022-12-18T13:13:03;-4.00;99.90
13035;DHT22;6584;48.022;11.810;2022-12-18T13:15:45;-3.70;99.90
13035;DHT22;6584;48.022;11.810;2022-12-18T13:23:29;-3.90;99.90
13035;DHT22;6584;48.022;11.810;2022-12-18T13:34:19;-4.60;99.90
13035;DHT22;6584;48.022;11.810;2022-12-18T13:36:45;-4.40;99.90
13035;DHT22;6584;48.022;11.810;2022-12-18T13:41:41;-4.50;99.90
13035;DHT22;6584;48.022;11.810;2022-12-18T13:44:32;-4.50;99.90
13035;DHT22;6584;48.022;11.810;2022-12-18T13:46:59;-4.60;99.90
13035;DHT22;6584;48.022;11.810;2022-12-18T13:49:39;-4.20;99.90
13035;DHT22;6584;48.022;11.810;2022-12-18T13:52:19;-4.10;99.90
13035;DHT22;6584;48.022;11.810;2022-12-18T13:54:51;-4.20;99.90
13035;DHT22;6584;48.022;11.810;2022-12-18T13:57:44;-4.40;99.90
13035;DHT22;6584;48.022;11.810;2022-12-18T14:02:47;-4.60;99.90
13035;DHT22;6584;48.022;11.810;2022-12-18T14:05:32;-4.40;99.90
13035;DHT22;6584;48.022;11.810;2022-12-18T14:08:08;-4.00;99.90
13035;DHT22;6584;48.022;11.810;2022-12-18T14:10:35;-3.90;99.90
13035;DHT22;6584;48.022;11.810;2022-12-18T14:13:07;-4.10;99.90
13035;DHT22;6584;48.022;11.810;2022-12-18T14:15:42;-4.30;99.90
13035;DHT22;6584;48.022;11.810;2022-12-18T14:18:33;-4.60;99.90
13035;DHT22;6584;48.022;11.810;2022-12-18T14:21:03;-4.30;99.90
13035;DHT22;6584;48.022;11.810;2022-12-18T14:25:58;-4.30;99.90
13035;DHT22;6584;48.022;11.810;2022-12-18T14:28:24;-4.30;99.90
13035;DHT22;6584;48.022;11.810;2022-12-18T14:30:51;-4.10;99.90
13035;DHT22;6584;48.022;11.810;2022-12-18T14:33:25;-4.20;99.90
13035;DHT22;6584;48.022;11.810;2022-12-18T14:40:58;-4.30;99.90
13035;DHT22;6584;48.022;11.810;2022-12-18T14:43:26;-4.40;99.90
13035;DHT22;6584;48.022;11.810;2022-12-18T14:45:52;-4.60;99.90
13035;DHT22;6584;48.022;11.810;2022-12-18T14:48:20;-4.70;99.90
13035;DHT22;6584;48.022;11.810;2022-12-18T14:50:58;-4.50;99.90
13035;DHT22;6584;48.022;11.810;2022-12-18T14:53:36;-4.50;99.90
13035;DHT22;6584;48.022;11.810;2022-12-18T14:56:11;-4.50;99.90
13035;DHT22;6584;48.022;11.810;2022-12-18T14:58:38;-4.60;99.90
13035;DHT22;6584;48.022;11.810;2022-12-18T15:01:04;-4.60;99.90
13035;DHT22;6584;48.022;11.810;2022-12-18T15:03:30;-4.30;99.90
13035;DHT22;6584;48.022;11.810;2022-12-18T15:06:15;-4.50;99.90
13035;DHT22;6584;48.022;11.810;2022-12-18T15:08:42;-4.90;99.90
13035;DHT22;6584;48.022;11.810;2022-12-18T15:11:44;-4.80;99.90
13035;DHT22;6584;48.022;11.810;2022-12-18T15:14:32;-4.70;99.90
13035;DHT22;6584;48.022;11.810;2022-12-18T15:16:59;-4.80;99.90
13035;DHT22;6584;48.022;11.810;2022-12-18T15:21:59;-4.80;99.90
13035;DHT22;6584;48.022;11.810;2022-12-18T15:24:29;-4.70;99.90
13035;DHT22;6584;48.022;11.810;2022-12-18T15:26:56;-4.80;99.90
13035;DHT22;6584;48.022;11.810;2022-12-18T15:29:22;-4.70;99.90
13035;DHT22;6584;48.022;11.810;2022-12-18T15:32:01;-4.70;99.90
13035;DHT22;6584;48.022;11.810;2022-12-18T15:34:27;-4.70;99.90
13035;DHT22;6584;48.022;11.810;2022-12-18T15:36:53;-4.70;99.90
13035;DHT22;6584;48.022;11.810;2022-12-18T15:39:18;-5.00;99.90
13035;DHT22;6584;48.022;11.810;2022-12-18T15:41:44;-4.90;99.90
13035;DHT22;6584;48.022;11.810;2022-12-18T15:44:30;-5.00;99.90
13035;DHT22;6584;48.022;11.810;2022-12-18T15:46:56;-5.20;99.90
13035;DHT22;6584;48.022;11.810;2022-12-18T15:49:22;-5.00;99.90
13035;DHT22;6584;48.022;11.810;2022-12-18T15:51:56;-4.90;99.90
13035;DHT22;6584;48.022;11.810;2022-12-18T15:54:23;-4.70;99.90
13035;DHT22;6584;48.022;11.810;2022-12-18T15:57:11;-4.60;99.90
13035;DHT22;6584;48.022;11.810;2022-12-18T15:59:54;-4.50;99.90
13035;DHT22;6584;48.022;11.810;2022-12-18T16:02:22;-4.50;99.90
13035;DHT22;6584;48.022;11.810;2022-12-18T16:04:48;-4.60;99.90
13035;DHT22;6584;48.022;11.810;2022-12-18T16:07:14;-4.50;99.90
13035;DHT22;6584;48.022;11.810;2022-12-18T16:09:40;-4.50;99.90
13035;DHT22;6584;48.022;11.810;2022-12-18T16:12:08;-4.40;99.90
13035;DHT22;6584;48.022;11.810;2022-12-18T16:14:36;-4.40;99.90
13035;DHT22;6584;48.022;11.810;2022-12-18T16:17:03;-4.30;99.90
13035;DHT22;6584;48.022;11.810;2022-12-18T16:19:30;-4.20;99.90
13035;DHT22;6584;48.022;11.810;2022-12-18T16:21:58;-4.30;99.90
13035;DHT22;6584;48.022;11.810;2022-12-18T16:24:26;-4.40;99.90
13035;DHT22;6584;48.022;11.810;2022-12-18T16:26:52;-4.40;99.90
13035;DHT22;6584;48.022;11.810;2022-12-18T16:29:19;-4.30;99.90
13035;DHT22;6584;48.022;11.810;2022-12-18T16:31:50;-4.50;99.90
13035;DHT22;6584;48.022;11.810;2022-12-18T16:34:36;-4.60;99.90
13035;DHT22;6584;48.022;11.810;2022-12-18T16:37:04;-4.60;99.90
13035;DHT22;6584;48.022;11.810;2022-12-18T16:39:30;-4.80;99.90
13035;DHT22;6584;48.022;11.810;2022-12-18T16:41:57;-5.00;99.90
13035;DHT22;6584;48.022;11.810;2022-12-18T16:44:23;-5.10;99.90
13035;DHT22;6584;48.022;11.810;2022-12-18T16:46:48;-5.10;99.90
13035;DHT22;6584;48.022;11.810;2022-12-18T16:49:16;-5.20;99.90
13035;DHT22;6584;48.022;11.810;2022-12-18T16:51:42;-5.20;99.90
13035;DHT22;6584;48.022;11.810;2022-12-18T16:54:08;-4.90;99.90
13035;DHT22;6584;48.022;11.810;2022-12-18T16:56:34;-4.80;99.90
13035;DHT22;6584;48.022;11.810;2022-12-18T16:59:00;-4.90;99.90
13035;DHT22;6584;48.022;11.810;2022-12-18T17:01:27;-4.80;99.90
13035;DHT22;6584;48.022;11.810;2022-12-18T17:03:58;-5.00;99.90
13035;DHT22;6584;48.022;11.810;2022-12-18T17:06:26;-5.10;99.90
13035;DHT22;6584;48.022;11.810;2022-12-18T17:08:56;-5.20;99.90
13035;DHT22;6584;48.022;11.810;2022-12-18T17:11:27;-5.30;99.90
13035;DHT22;6584;48.022;11.810;2022-12-18T17:13:53;-5.10;99.90
13035;DHT22;6584;48.022;11.810;2022-12-18T17:16:19;-5.20;99.90
13035;DHT22;6584;48.022;11.810;2022-12-18T17:18:45;-5.10;99.90
13035;DHT22;6584;48.022;11.810;2022-12-18T17:21:11;-4.90;99.90
13035;DHT22;6584;48.022;11.810;2022-12-18T17:23:42;-4.90;99.90
13035;DHT22;6584;48.022;11.810;2022-12-18T17:26:11;-5.00;99.90
13035;DHT22;6584;48.022;11.810;2022-12-18T17:28:38;-5.20;99.90
13035;DHT22;6584;48.022;11.810;2022-12-18T17:31:17;-5.10;99.90
13035;DHT22;6584;48.022;11.810;2022-12-18T17:33:43;-5.00;99.90
13035;DHT22;6584;48.022;11.810;2022-12-18T17:36:09;-5.00;99.90
13035;DHT22;6584;48.022;11.810;2022-12-18T17:38:35;-5.00;99.90
13035;DHT22;6584;48.022;11.810;2022-12-18T17:41:04;-5.10;99.90
13035;DHT22;6584;48.022;11.810;2022-12-18T17:43:31;-5.00;99.90
13035;DHT22;6584;48.022;11.810;2022-12-18T17:46:01;-5.10;99.90
13035;DHT22;6584;48.022;11.810;2022-12-18T17:48:29;-4.90;99.90
13035;DHT22;6584;48.022;11.810;2022-12-18T17:50:59;-4.70;99.90